Latest Weather Observations for Pallamana

IDS60901

Issued at 10:31 am CDT Saturday 21 January 2017 (issued every 10 minutes, with the page automatically refreshed every 10 minutes)

About weather observations | Map of Adelaide area stations | Latest observations for Adelaide area | Other Formats
Station Details ID: 024584 Name: PALLAMANA AERODROME Lat: -35.06 Lon: 139.23 Height: 45.0 m
Data from the previous 72 hours. | See also: Recent months at Pallamana
Date/Time
CDT
Temp
°C
App
Temp
°C
Dew
Point
°C
Rel
Hum
%
Delta-T
°C
Wind Press
QNH
hPa
Press
MSL
hPa
Rain since
9am
mm
Dir  Spd
km/h
Gust
km/h
Spd
kts
Gust
kts
21/10:30am 19.0 16.5 8.4 50 5.5 NNE 11 19 6 10 1016.4 1016.2 0.0
21/10:00am 18.2 16.2 8.8 54 4.9 NE 9 19 5 10 1016.7 1016.5 0.0
21/09:30am 17.1 15.0 9.9 62 3.8 NE 11 17 6 9 1016.8 1016.6 0.0
21/09:00am 16.5 14.1 10.0 65 3.4 NE 13 17 7 9 1016.8 1016.6 0.2
21/08:30am 15.0 13.1 10.6 75 2.3 NE 11 13 6 7 1016.7 1016.5 0.2
21/08:00am 14.7 13.6 10.5 76 2.2 E 7 11 4 6 1016.3 1016.1 0.2
21/07:30am 13.5 13.0 10.6 82 1.5 SSE 4 7 2 4 1015.9 1015.7 0.2
21/07:00am 11.7 11.8 10.3 91 0.7 CALM 0 6 0 3 1015.5 1015.3 0.2
21/06:30am 10.5 10.4 9.3 92 0.6 CALM 0 0 0 0 1015.4 1015.2 0.2
21/06:00am 10.4 10.3 9.4 93 0.5 CALM 0 0 0 0 1015.2 1015.0 0.2
21/05:30am 10.6 9.2 9.6 93 0.5 S 7 9 4 5 1014.9 1014.7 0.2
21/05:00am 11.0 9.9 9.8 92 0.6 S 6 7 3 4 1014.7 1014.5 0.2
21/04:30am 11.2 10.1 10.0 92 0.6 S 6 9 3 5 1014.4 1014.2 0.2
21/04:00am 10.8 9.4 9.6 92 0.6 S 7 9 4 5 1014.2 1014.0 0.2
21/03:30am 11.6 10.5 10.0 90 0.8 SSW 6 7 3 4 1014.0 1013.8 0.2
21/03:00am 12.2 11.1 10.5 89 0.9 S 7 7 4 4 1013.9 1013.7 0.2
21/02:30am 11.3 10.1 9.7 90 0.8 WSW 6 7 3 4 1013.9 1013.7 0.2
21/02:00am 11.9 10.0 10.5 91 0.7 SW 11 13 6 7 1013.7 1013.5 0.2
21/01:30am 12.2 9.9 10.5 89 0.9 SW 13 15 7 8 1013.6 1013.4 0.2
21/01:00am 12.3 9.7 10.6 89 0.9 SW 15 17 8 9 1013.7 1013.5 0.2
21/12:30am 12.7 10.4 10.6 87 1.1 SW 13 15 7 8 1013.6 1013.4 0.2
21/12:00am 12.7 10.4 10.6 87 1.1 SW 13 15 7 8 1013.3 1013.1 0.2
 
Date/Time
CDT
Temp
°C
App
Temp
°C
Dew
Point
°C
Rel
Hum
%
Delta-T
°C
Wind Press
QNH
hPa
Press
MSL
hPa
Rain since
9am
mm
Dir  Spd
km/h
Gust
km/h
Spd
kts
Gust
kts
20/11:30pm 12.7 10.4 10.4 86 1.2 SSW 13 13 7 7 1013.0 1012.8 0.2
20/11:00pm 13.8 11.6 10.8 82 1.6 SSW 13 15 7 8 1012.7 1012.5 0.2
20/10:30pm 14.1 11.5 10.7 80 1.8 SSW 15 19 8 10 1012.4 1012.2 0.2
20/10:00pm 14.0 11.8 10.8 81 1.7 SW 13 17 7 9 1012.2 1012.0 0.2
20/09:30pm 15.0 12.5 10.9 76 2.2 SSW 15 17 8 9 1011.8 1011.6 0.2
20/09:00pm 15.7 12.7 10.8 72 2.6 SSW 17 22 9 12 1011.5 1011.3 0.2
20/08:30pm 16.6 12.6 10.6 67 3.2 SSW 22 32 12 17 1010.8 1010.7 0.2
20/08:00pm 17.5 13.1 10.4 63 3.8 SSW 24 35 13 19 1010.4 1010.3 0.2
20/07:30pm 18.3 13.1 10.3 59 4.3 SSW 28 37 15 20 1010.1 1010.0 0.2
20/07:00pm 18.9 13.7 10.1 56 4.7 SSW 28 39 15 21 1009.9 1009.8 0.2
20/06:30pm 19.2 13.1 9.6 53 5.1 SSW 32 44 17 24 1009.6 1009.5 0.2
20/06:00pm 20.1 14.0 10.3 53 5.3 SSW 33 44 18 24 1009.3 1009.2 0.2
20/05:41pm 20.2 14.2 10.0 52 5.5 SSW 32 50 17 27 1009.2 1009.1 0.2
20/05:30pm 21.0 14.8 10.1 49 5.9 SSW 33 43 18 23 1009.2 1009.1 0.2
20/05:00pm 21.1 15.3 10.7 51 5.7 SSW 32 44 17 24 1008.9 1008.8 0.2
20/04:30pm 21.6 15.4 10.2 48 6.2 SSW 33 48 18 26 1008.7 1008.6 0.2
20/04:00pm 21.0 14.9 9.9 49 6.0 SSW 32 44 17 24 1008.4 1008.3 0.2
20/03:30pm 20.6 15.5 10.5 52 5.5 SSW 28 41 15 22 1008.5 1008.4 0.2
20/03:00pm 22.0 16.3 11.0 49 6.1 SSW 32 46 17 25 1008.3 1008.2 0.2
20/02:30pm 21.2 15.7 10.6 50 5.8 SSW 30 41 16 22 1008.1 1008.0 0.2
20/02:00pm 21.5 16.0 11.7 53 5.5 S 32 41 17 22 1008.2 1008.1 0.0
20/01:30pm 20.5 15.3 11.5 56 5.0 SSW 30 43 16 23 1008.0 1007.9 0.0
20/01:00pm 19.9 14.2 11.0 56 4.9 SSW 32 41 17 22 1008.0 1007.9 0.0
20/12:30pm 20.5 14.2 11.1 54 5.2 SSW 35 48 19 26 1007.7 1007.6 0.0
20/12:15pm 19.7 13.7 10.9 57 4.8 SSW 33 54 18 29 1007.6 1007.5 0.0
20/12:00pm 19.4 13.6 11.4 60 4.4 SSW 33 48 18 26 1007.5 1007.4 0.0
20/11:30am 18.6 13.5 11.9 65 3.7 SSW 30 46 16 25 1007.3 1007.2 0.0
20/11:00am 18.1 12.8 13.0 72 2.9 SSW 33 48 18 26 1006.8 1006.7 0.0
20/10:30am 18.2 12.8 12.7 70 3.1 SSW 33 44 18 24 1006.2 1006.0 0.0
20/10:04am 17.5 13.2 13.1 75 2.5 SSW 28 46 15 25 1005.8 1005.6 0.0
20/10:00am 17.6 13.5 13.7 78 2.2 SSW 28 37 15 20 1005.8 1005.6 0.0
20/09:30am 16.9 13.6 15.0 88 1.1 SSW 26 39 14 21 1005.2 1005.0 0.0
20/09:00am 16.9 11.9 13.9 82 1.7 SSW 33 46 18 25 1004.7 1004.5 12.6
20/08:53am 17.3 11.9 14.0 81 1.9 SSW 35 46 19 25 1004.5 1004.3 12.6
20/08:30am 17.5 14.7 15.3 87 1.3 SSW 24 33 13 18 1004.3 1004.1 12.6
20/08:00am 17.3 14.2 15.6 90 1.0 SSW 26 35 14 19 1003.4 1003.2 12.6
20/07:30am 17.4 14.0 15.7 90 1.0 SSW 28 41 15 22 1002.6 1002.4 12.6
20/07:11am 17.4 13.7 15.9 91 0.9 SSW 30 48 16 26 1001.9 1001.7 12.6
20/07:00am 17.6 13.6 16.1 91 0.9 SSW 32 43 17 23 1001.8 1001.6 12.6
20/06:52am 17.4 13.2 16.2 93 0.7 SSW 33 59 18 32 1001.7 1001.5 12.6
20/06:50am 17.5 12.5 16.2 92 0.8 SSW 37 59 20 32 1001.6 1001.4 12.6
20/06:35am 18.4 14.6 16.6 89 1.1 SW 32 59 17 32 1001.0 1000.8 12.6
20/06:33am 18.7 14.9 16.7 88 1.2 SW 32 50 17 27 1000.9 1000.7 12.6
20/06:30am 18.9 15.5 16.8 87 1.3 SW 30 43 16 23 1000.8 1000.6 12.6
20/06:00am 19.1 15.3 16.8 86 1.4 SW 32 43 17 23 1000.3 1000.1 12.6
20/05:30am 18.8 16.7 17.2 90 1.0 SSW 24 33 13 18 1000.0 999.8 12.6
20/05:00am 17.8 18.4 16.8 94 0.6 S 9 11 5 6 999.0 998.8 12.6
20/04:30am 18.0 18.7 17.0 94 0.6 SW 9 11 5 6 998.4 998.2 12.6
20/04:00am 18.0 18.7 17.0 94 0.6 SW 9 13 5 7 997.9 997.7 12.6
20/03:30am 18.0 18.3 17.0 94 0.6 WSW 11 15 6 8 998.0 997.8 12.6
20/03:21am 18.1 18.8 17.1 94 0.6 W 9 13 5 7 998.2 998.0 12.6
20/03:00am 18.0 18.4 17.2 95 0.5 W 11 15 6 8 998.4 998.2 12.6
20/02:42am 17.8 19.1 17.1 96 0.4 NW 6 7 3 4 998.0 997.8 12.4
20/02:30am 17.7 19.3 17.0 96 0.4 WSW 4 6 2 3 998.0 997.8 12.4
20/02:10am 17.7 18.7 16.9 95 0.5 SSE 7 11 4 6 998.5 998.3 11.8
20/02:00am 17.8 18.1 17.0 95 0.5 SSW 11 17 6 9 999.3 999.1 9.4
20/01:37am 18.0 15.5 17.0 94 0.6 SW 26 41 14 22 999.6 999.4 5.4
20/01:30am 18.3 17.0 17.3 94 0.6 SSW 20 26 11 14 999.4 999.2 4.8
20/01:13am 18.2 15.4 17.2 94 0.6 SSW 28 39 15 21 999.4 999.2 4.4
20/01:00am 18.5 15.0 17.5 94 0.6 SW 32 44 17 24 999.3 999.1 4.4
20/12:58am 18.5 15.0 17.4 93 0.7 SW 32 50 17 27 999.3 999.1 4.4
20/12:45am 18.7 14.0 17.7 94 0.6 SW 39 52 21 28 999.5 999.3 4.2
20/12:33am 19.1 14.9 18.0 93 0.7 SW 37 48 20 26 999.2 999.0 4.2
20/12:30am 19.1 15.6 18.0 93 0.7 SW 33 48 18 26 999.1 998.9 4.2
20/12:00am 20.3 17.3 18.7 90 1.0 SW 32 48 17 26 998.6 998.4 3.8
 
Date/Time
CDT
Temp
°C
App
Temp
°C
Dew
Point
°C
Rel
Hum
%
Delta-T
°C
Wind Press
QNH
hPa
Press
MSL
hPa
Rain since
9am
mm
Dir  Spd
km/h
Gust
km/h
Spd
kts
Gust
kts
19/11:52pm 21.6 22.8 19.9 90 1.1 NNW 13 48 7 26 998.9 998.7 3.8
19/11:30pm 24.7 30.0 23.1 91 1.1 CALM 0 2 0 1 998.9 998.7 3.8
19/11:00pm 24.5 27.7 23.0 91 1.0 N 11 19 6 10 999.4 999.2 3.8
19/10:30pm 24.5 26.0 23.0 91 1.0 N 20 28 11 15 999.4 999.2 3.8
19/10:00pm 24.8 26.2 22.9 89 1.3 NNW 20 28 11 15 1000.7 1000.5 1.6
19/09:30pm 25.0 23.4 21.9 83 2.1 NW 33 46 18 25 999.8 999.6 0.0
19/09:19pm 27.1 24.8 20.6 67 4.3 NW 33 67 18 36 999.4 999.2 0.0
19/09:15pm 32.3 29.2 13.3 31 11.4 NNW 22 61 12 33 998.8 998.6 0.0
19/09:14pm 32.5 29.5 12.7 30 11.8 NNW 20 30 11 16 998.4 998.2 0.0
19/09:00pm 33.3 29.8 11.0 25 13.1 NNE 20 26 11 14 996.4 996.2 0.0
19/08:30pm 33.7 30.4 10.9 25 13.4 NE 19 26 10 14 996.7 996.5 0.0
19/08:00pm 34.6 30.2 10.3 22 14.1 NE 24 32 13 17 996.9 996.7 0.0
19/07:30pm 35.7 31.6 11.4 23 14.5 NE 24 33 13 18 997.6 997.4 0.0
19/07:00pm 36.2 32.0 11.2 22 14.8 NE 24 33 13 18 998.0 997.8 0.0
19/06:30pm 36.0 32.0 10.6 21 15.0 NE 22 30 12 16 998.1 997.9 0.0
19/06:00pm 35.9 32.6 10.9 22 14.8 NE 19 26 10 14 998.8 998.6 0.0
19/05:30pm 35.4 31.7 10.3 21 14.7 NE 20 32 11 17 999.6 999.4 0.0
19/05:00pm 35.3 31.5 9.8 21 14.7 NNE 20 26 11 14 1000.5 1000.3 0.0
19/04:30pm 35.4 31.4 8.9 19 15.2 NE 20 26 11 14 1001.3 1001.1 0.0
19/04:00pm 35.5 31.0 8.7 19 15.3 NE 22 30 12 16 1002.2 1002.0 0.0
19/03:30pm 33.4 29.1 7.7 20 14.3 NE 20 30 11 16 1003.3 1003.1 0.0
19/03:00pm 33.2 28.8 7.3 20 14.3 NE 20 30 11 16 1004.1 1003.9 0.0
19/02:30pm 31.9 27.4 7.0 21 13.6 NE 20 26 11 14 1005.2 1005.0 0.0
19/02:00pm 31.4 27.1 7.0 21 13.2 NE 19 30 10 16 1006.0 1005.8 0.0
19/01:30pm 29.6 26.0 6.7 23 12.3 ENE 15 20 8 11 1006.7 1006.5 0.0
19/01:00pm 28.6 24.5 6.3 24 11.8 NE 17 24 9 13 1007.5 1007.4 0.0
19/12:30pm 27.9 23.9 6.6 26 11.3 NE 17 24 9 13 1008.1 1008.0 0.0
19/12:00pm 27.5 23.1 6.5 26 11.1 NE 19 26 10 14 1008.5 1008.4 0.0
19/11:30am 26.5 21.8 6.2 27 10.6 NE 20 28 11 15 1009.1 1009.0 0.0
19/11:00am 25.8 20.7 6.2 28 10.2 NE 22 28 12 15 1009.7 1009.6 0.0
19/10:30am 24.0 19.6 6.6 32 9.0 NE 19 24 10 13 1010.0 1009.9 0.0
19/10:00am 21.7 18.1 6.6 37 7.7 NE 15 20 8 11 1010.5 1010.4 0.0
19/09:30am 21.0 16.9 6.4 38 7.4 NE 17 24 9 13 1011.1 1011.0 0.0
19/09:00am 19.8 16.1 6.5 42 6.7 NE 15 19 8 10 1011.3 1011.1 0.0
19/08:30am 18.2 15.7 6.6 46 5.8 ENE 9 15 5 8 1011.6 1011.4 0.0
19/08:00am 17.8 15.7 6.5 47 5.6 E 7 11 4 6 1012.0 1011.8 0.0
19/07:30am 16.6 14.9 7.4 54 4.6 SSE 6 7 3 4 1011.9 1011.7 0.0
19/07:00am 14.6 14.6 9.8 73 2.5 CALM 0 0 0 0 1011.8 1011.6 0.0
19/06:30am 13.1 11.4 8.3 72 2.4 WSW 7 9 4 5 1011.7 1011.5 0.0
19/06:00am 13.8 12.1 8.4 70 2.7 SW 7 9 4 5 1011.7 1011.5 0.0
19/05:30am 14.3 12.1 7.9 65 3.2 SSW 9 11 5 6 1011.6 1011.4 0.0
19/05:00am 14.1 12.0 8.3 68 2.9 SSW 9 9 5 5 1011.6 1011.4 0.0
19/04:30am 14.4 12.5 8.9 69 2.8 SW 9 11 5 6 1011.6 1011.4 0.0
19/04:00am 14.6 12.5 9.8 73 2.5 SSW 11 15 6 8 1011.7 1011.5 0.0
19/03:30am 15.2 13.0 10.9 75 2.3 SW 13 15 7 8 1012.0 1011.8 0.0
19/03:00am 15.9 13.8 11.3 74 2.5 SW 13 13 7 7 1012.2 1012.0 0.0
19/02:30am 16.5 14.6 11.9 74 2.5 SW 13 17 7 9 1012.4 1012.2 0.0
19/02:00am 16.2 14.5 12.6 79 2.0 SW 13 17 7 9 1012.9 1012.7 0.0
19/01:30am 15.8 14.1 12.5 81 1.8 WSW 13 17 7 9 1013.3 1013.1 0.0
19/01:00am 16.0 14.3 12.6 80 1.9 WSW 13 17 7 9 1013.6 1013.4 0.0
19/12:30am 16.3 13.8 12.3 77 2.2 WSW 17 19 9 10 1013.7 1013.5 0.0
19/12:00am 16.4 14.7 12.4 77 2.2 WSW 13 15 7 8 1014.1 1013.9 0.0
 
Date/Time
CDT
Temp
°C
App
Temp
°C
Dew
Point
°C
Rel
Hum
%
Delta-T
°C
Wind Press
QNH
hPa
Press
MSL
hPa
Rain since
9am
mm
Dir  Spd
km/h
Gust
km/h
Spd
kts
Gust
kts
18/11:30pm 16.8 15.0 12.1 74 2.6 SW 13 17 7 9 1014.4 1014.2 0.0
18/11:00pm 17.7 15.2 12.3 70 3.0 SSW 17 20 9 11 1014.5 1014.3 0.0
18/10:30pm 18.1 15.6 12.3 69 3.2 SSW 17 20 9 11 1015.0 1014.8 0.0
18/10:00pm 17.9 15.3 12.1 69 3.2 SSW 17 20 9 11 1014.9 1014.7 0.0
18/09:30pm 17.9 14.8 11.7 67 3.4 SSW 19 24 10 13 1014.8 1014.6 0.0
18/09:00pm 18.1 14.8 11.7 66 3.5 SSW 20 28 11 15 1014.8 1014.6 0.0
18/08:30pm 18.6 15.5 11.5 63 3.9 SSW 19 30 10 16 1014.8 1014.6 0.0
18/08:00pm 18.9 15.7 11.2 61 4.2 SSW 19 28 10 15 1014.6 1014.4 0.0
18/07:30pm 19.9 16.1 11.2 57 4.8 SSW 22 32 12 17 1014.1 1013.9 0.0
18/07:00pm 20.2 15.7 11.3 56 4.9 SSW 26 33 14 18 1014.0 1013.8 0.0
18/06:30pm 22.2 18.0 11.0 49 6.2 S 24 32 13 17 1014.0 1013.8 0.0
18/06:00pm 21.9 17.9 10.6 48 6.2 S 22 32 12 17 1013.9 1013.7 0.0
18/05:30pm 22.6 18.1 9.9 44 6.9 SSW 24 33 13 18 1014.1 1013.9 0.0
18/05:00pm 22.5 18.0 10.0 45 6.8 S 24 33 13 18 1014.3 1014.1 0.0
18/04:30pm 23.3 18.6 9.2 40 7.6 S 24 33 13 18 1014.4 1014.2 0.0
18/04:00pm 23.7 19.0 9.3 40 7.8 S 24 35 13 19 1014.6 1014.4 0.0
18/03:30pm 23.7 19.4 9.5 40 7.7 S 22 35 12 19 1014.7 1014.5 0.0
18/03:00pm 24.1 19.7 8.9 38 8.2 S 22 32 12 17 1014.9 1014.7 0.0
18/02:30pm 23.7 18.7 8.0 36 8.3 S 24 37 13 20 1015.2 1015.0 0.0
18/02:00pm 23.8 18.7 6.2 32 9.0 S 22 33 12 18 1015.7 1015.5 0.0
18/01:30pm 23.5 18.1 6.3 33 8.8 SSE 24 35 13 19 1015.8 1015.6 0.0
18/01:00pm 22.2 16.6 7.3 38 7.7 S 26 37 14 20 1015.9 1015.7 0.0
18/12:30pm 22.0 18.1 9.3 44 6.8 S 20 35 11 19 1016.2 1016.0 0.0
18/12:00pm 21.4 17.6 9.7 47 6.3 S 20 30 11 16 1016.4 1016.2 0.0
18/11:30am 20.7 16.9 9.9 50 5.8 SSE 20 35 11 19 1016.7 1016.5 0.0
18/11:00am 19.8 16.0 9.9 53 5.3 SSE 20 32 11 17 1016.6 1016.4 0.0

Latest Capital City Observations: Canberra | Sydney | Melbourne | Brisbane | Adelaide | Perth | Hobart | Darwin

Other Formats:

Comma delimited format used in spreadsheet applications
http://www.bom.gov.au/fwo/IDS60901/IDS60901.95818.axf

JavaScript Object Notation format (JSON) in row-major order
http://www.bom.gov.au/fwo/IDS60901/IDS60901.95818.json